Terminal Aerodrome Forecast
Issued by NWS

Home | Current Version | Previous Version | Text Only | Print | Product List | Glossary On
Versions: 1 2 3 4 5 6 7 8 9 10 11 12 13
357
FTPA31 PHFO 162331
TAFHTO
TAF
PHTO 162331Z 1700/1724 18009KT P6SM SCT045
     FM170600 VRB03KT P6SM SCT035 BKN060
     FM171800 21006KT P6SM SCT045
     FM172200 08012KT P6SM SCT045=

USA.gov is the U.S. government's official web portal to all federal, state and local government web resources and services.